Time,TemperatureF,DewpointF,PressureIn,WindDirection,WindDirectionDegrees,WindSpeedMPH,WindSpeedGustMPH,Humidity,HourlyPrecipIn,Conditions,Clouds,dailyrainin,SoftwareType,DateUTC
2013-07-25 00:12:00,75.3,70.0,29.73,WNW,282,0.0,-999.0,84,-99.99,,,0.00,weatherlink.com 1.10,2013-07-25 04:12:00,
2013-07-25 00:27:00,74.9,70.0,29.73,WNW,282,0.0,-999.0,84,-99.99,,,0.00,weatherlink.com 1.10,2013-07-25 04:27:00,
2013-07-25 00:42:00,74.9,70.0,29.73,WNW,282,0.0,-999.0,85,-99.99,,,0.00,weatherlink.com 1.10,2013-07-25 04:42:00,
2013-07-25 00:57:00,74.7,70.0,29.73,East,97,0.0,-999.0,85,-99.99,,,0.00,weatherlink.com 1.10,2013-07-25 04:57:00,
2013-07-25 01:12:00,74.7,70.0,29.73,ENE,76,0.0,-999.0,85,-99.99,,,0.00,weatherlink.com 1.10,2013-07-25 05:12:00,
2013-07-25 01:27:00,74.6,70.0,29.73,East,82,0.0,-999.0,86,-99.99,,,0.00,weatherlink.com 1.10,2013-07-25 05:27:00,
2013-07-25 01:42:00,74.6,71.0,29.73,East,82,0.0,-999.0,87,-99.99,,,0.00,weatherlink.com 1.10,2013-07-25 05:42:00,
2013-07-25 01:57:00,74.6,71.0,29.73,East,82,0.0,-999.0,87,-99.99,,,0.00,weatherlink.com 1.10,2013-07-25 05:57:00,
2013-07-25 02:12:00,74.6,71.0,29.72,East,82,0.0,-999.0,88,-99.99,,,0.00,weatherlink.com 1.10,2013-07-25 06:12:00,
2013-07-25 02:27:00,74.2,71.0,29.72,ENE,78,0.0,-999.0,88,-99.99,,,0.00,weatherlink.com 1.10,2013-07-25 06:27:00,
2013-07-25 02:42:00,74.0,70.0,29.72,ENE,78,0.0,-999.0,88,-99.99,,,0.00,weatherlink.com 1.10,2013-07-25 06:42:00,
2013-07-25 02:57:00,74.0,70.0,29.72,ENE,78,0.0,-999.0,87,-99.99,,,0.00,weatherlink.com 1.10,2013-07-25 06:57:00,
2013-07-25 03:12:00,73.9,70.0,29.71,ENE,78,0.0,-999.0,87,-99.99,,,0.00,weatherlink.com 1.10,2013-07-25 07:12:00,
2013-07-25 03:27:00,73.9,70.0,29.71,ENE,78,0.0,-999.0,87,-99.99,,,0.00,weatherlink.com 1.10,2013-07-25 07:27:00,
2013-07-25 03:42:00,73.5,70.0,29.71,SE,126,0.0,-999.0,87,-99.99,,,0.00,weatherlink.com 1.10,2013-07-25 07:42:00,
2013-07-25 03:57:00,73.0,69.0,29.70,East,83,0.0,-999.0,87,-99.99,,,0.00,weatherlink.com 1.10,2013-07-25 07:57:00,
2013-07-25 04:12:00,72.5,69.0,29.69,South,171,0.0,-999.0,88,-99.99,,,0.00,weatherlink.com 1.10,2013-07-25 08:12:00,
2013-07-25 04:27:00,72.0,69.0,29.70,NNW,337,0.0,-999.0,89,-99.99,,,0.00,weatherlink.com 1.10,2013-07-25 08:27:00,
2013-07-25 04:42:00,71.8,69.0,29.71,NNW,347,0.0,-999.0,90,-99.99,,,0.00,weatherlink.com 1.10,2013-07-25 08:42:00,
2013-07-25 04:57:00,71.6,69.0,29.71,North,0,0.0,-999.0,90,-99.99,,,0.00,weatherlink.com 1.10,2013-07-25 08:57:00,
2013-07-25 05:12:00,71.8,69.0,29.72,North,350,0.0,-999.0,91,-99.99,,,0.00,weatherlink.com 1.10,2013-07-25 09:12:00,
2013-07-25 05:27:00,71.8,69.0,29.72,SSW,212,0.0,-999.0,92,-99.99,,,0.00,weatherlink.com 1.10,2013-07-25 09:27:00,
2013-07-25 05:42:00,71.6,69.0,29.72,SW,217,0.0,-999.0,92,-99.99,,,0.00,weatherlink.com 1.10,2013-07-25 09:42:00,
2013-07-25 05:57:00,71.5,69.0,29.72,South,174,0.0,-999.0,92,-99.99,,,0.00,weatherlink.com 1.10,2013-07-25 09:57:00,
2013-07-25 06:12:00,71.3,69.0,29.73,North,0,0.0,-999.0,92,-99.99,,,0.00,weatherlink.com 1.10,2013-07-25 10:12:00,
2013-07-25 06:27:00,70.9,68.0,29.73,ENE,72,0.0,-999.0,91,-99.99,,,0.00,weatherlink.com 1.10,2013-07-25 10:27:00,
2013-07-25 06:42:00,70.8,68.0,29.73,SSE,155,0.0,-999.0,91,-99.99,,,0.00,weatherlink.com 1.10,2013-07-25 10:42:00,
2013-07-25 06:57:00,70.4,67.0,29.74,SSW,205,0.0,-999.0,90,-99.99,,,0.00,weatherlink.com 1.10,2013-07-25 10:57:00,
2013-07-25 07:12:00,70.3,67.0,29.75,South,186,0.0,-999.0,90,-99.99,,,0.00,weatherlink.com 1.10,2013-07-25 11:12:00,
2013-07-25 07:27:00,70.3,67.0,29.75,SE,144,0.0,-999.0,89,-99.99,,,0.00,weatherlink.com 1.10,2013-07-25 11:27:00,
2013-07-25 07:42:00,70.3,67.0,29.76,ESE,109,0.0,-999.0,90,-99.99,,,0.00,weatherlink.com 1.10,2013-07-25 11:42:00,
2013-07-25 07:57:00,70.4,67.0,29.77,ESE,109,0.0,-999.0,89,-99.99,,,0.00,weatherlink.com 1.10,2013-07-25 11:57:00,
2013-07-25 08:12:00,70.4,67.0,29.77,SE,126,0.0,-999.0,88,-99.99,,,0.00,weatherlink.com 1.10,2013-07-25 12:12:00,
2013-07-25 08:27:00,70.4,67.0,29.78,ESE,113,0.0,-999.0,89,-99.99,,,0.00,weatherlink.com 1.10,2013-07-25 12:27:00,
2013-07-25 08:42:00,70.6,67.0,29.78,ESE,113,0.0,-999.0,88,-99.99,,,0.00,weatherlink.com 1.10,2013-07-25 12:42:00,
2013-07-25 08:57:00,70.8,67.0,29.79,East,90,0.0,-999.0,88,-99.99,,,0.00,weatherlink.com 1.10,2013-07-25 12:57:00,
2013-07-25 09:12:00,71.1,67.0,29.79,SSE,162,0.0,-999.0,86,-99.99,,,0.00,weatherlink.com 1.10,2013-07-25 13:12:00,
2013-07-25 09:27:00,71.5,67.0,29.79,NNW,340,0.0,-999.0,85,-99.99,,,0.00,weatherlink.com 1.10,2013-07-25 13:27:00,
2013-07-25 09:42:00,71.8,67.0,29.80,North,10,0.0,-999.0,85,-99.99,,,0.00,weatherlink.com 1.10,2013-07-25 13:42:00,
2013-07-25 09:57:00,71.8,67.0,29.80,North,357,0.0,-999.0,85,-99.99,,,0.00,weatherlink.com 1.10,2013-07-25 13:57:00,
2013-07-25 10:12:00,71.8,67.0,29.81,SW,227,0.0,-999.0,85,-99.99,,,0.00,weatherlink.com 1.10,2013-07-25 14:12:00,
2013-07-25 10:27:00,71.8,67.0,29.81,North,7,0.0,-999.0,84,-99.99,,,0.00,weatherlink.com 1.10,2013-07-25 14:27:00,
2013-07-25 10:42:00,71.8,66.0,29.82,West,270,0.0,-999.0,83,-99.99,,,0.00,weatherlink.com 1.10,2013-07-25 14:42:00,
2013-07-25 10:57:00,72.3,67.0,29.82,NE,47,0.0,-999.0,83,-99.99,,,0.00,weatherlink.com 1.10,2013-07-25 14:57:00,
2013-07-25 11:12:00,72.5,67.0,29.82,NE,48,0.0,-999.0,82,-99.99,,,0.00,weatherlink.com 1.10,2013-07-25 15:12:00,
2013-07-25 11:27:00,73.5,67.0,29.82,North,11,3.0,-999.0,80,-99.99,,,0.00,weatherlink.com 1.10,2013-07-25 15:27:00,
2013-07-25 11:42:00,73.7,67.0,29.82,SSW,213,0.0,-999.0,80,-99.99,,,0.00,weatherlink.com 1.10,2013-07-25 15:42:00,
2013-07-25 11:57:00,74.0,68.0,29.83,NNE,20,0.0,-999.0,80,-99.99,,,0.00,weatherlink.com 1.10,2013-07-25 15:57:00,
2013-07-25 12:13:00,74.7,68.0,29.83,North,6,0.0,-999.0,79,-99.99,,,0.00,weatherlink.com 1.10,2013-07-25 16:13:00,
2013-07-25 12:28:00,76.1,68.0,29.83,East,97,1.0,-999.0,77,-99.99,,,0.00,weatherlink.com 1.10,2013-07-25 16:28:00,
2013-07-25 12:43:00,77.0,68.0,29.83,East,82,0.0,-999.0,74,-99.99,,,0.00,weatherlink.com 1.10,2013-07-25 16:43:00,
2013-07-25 12:58:00,76.7,68.0,29.82,North,357,0.0,-999.0,75,-99.99,,,0.00,weatherlink.com 1.10,2013-07-25 16:58:00,
2013-07-25 13:13:00,76.5,68.0,29.83,East,83,0.0,-999.0,76,-99.99,,,0.00,weatherlink.com 1.10,2013-07-25 17:13:00,
2013-07-25 13:28:00,76.8,69.0,29.83,SE,141,0.0,-999.0,76,-99.99,,,0.00,weatherlink.com 1.10,2013-07-25 17:28:00,
2013-07-25 13:43:00,76.0,68.0,29.83,ESE,121,0.0,-999.0,77,-99.99,,,0.00,weatherlink.com 1.10,2013-07-25 17:43:00,
2013-07-25 13:58:00,75.8,69.0,29.83,SE,134,0.0,-999.0,78,-99.99,,,0.00,weatherlink.com 1.10,2013-07-25 17:58:00,
2013-07-25 14:13:00,76.0,68.0,29.83,ESE,113,0.0,-999.0,77,-99.99,,,0.00,weatherlink.com 1.10,2013-07-25 18:13:00,
2013-07-25 14:28:00,76.5,68.0,29.83,ESE,113,0.0,-999.0,76,-99.99,,,0.00,weatherlink.com 1.10,2013-07-25 18:28:00,
2013-07-25 14:43:00,76.8,69.0,29.82,SSW,213,0.0,-999.0,77,-99.99,,,0.00,weatherlink.com 1.10,2013-07-25 18:43:00,
2013-07-25 14:58:00,77.0,68.0,29.82,SSW,213,0.0,-999.0,74,-99.99,,,0.00,weatherlink.com 1.10,2013-07-25 18:58:00,
2013-07-25 15:13:00,77.7,69.0,29.83,SSW,209,0.0,-999.0,74,-99.99,,,0.00,weatherlink.com 1.10,2013-07-25 19:13:00,
2013-07-25 15:28:00,78.3,70.0,29.83,SSW,209,0.0,-999.0,76,-99.99,,,0.00,weatherlink.com 1.10,2013-07-25 19:28:00,
2013-07-25 15:43:00,79.4,69.0,29.83,SSW,206,0.0,-999.0,71,-99.99,,,0.00,weatherlink.com 1.10,2013-07-25 19:43:00,
2013-07-25 15:58:00,79.6,70.0,29.83,SSW,206,0.0,-999.0,72,-99.99,,,0.00,weatherlink.com 1.10,2013-07-25 19:58:00,
2013-07-25 16:43:00,81.1,70.0,29.82,SSW,206,0.0,-999.0,70,-99.99,,,0.00,weatherlink.com 1.10,2013-07-25 20:43:00,
2013-07-25 16:58:00,79.2,70.0,29.83,SSW,206,0.0,-999.0,73,-99.99,,,0.00,weatherlink.com 1.10,2013-07-25 20:58:00,
2013-07-25 17:13:00,78.8,70.0,29.84,SSW,206,0.0,-999.0,74,-99.99,,,0.00,weatherlink.com 1.10,2013-07-25 21:13:00,
2013-07-25 17:28:00,79.8,70.0,29.84,SSW,206,0.0,-999.0,73,-99.99,,,0.00,weatherlink.com 1.10,2013-07-25 21:28:00,
2013-07-25 17:43:00,80.1,70.0,29.83,ENE,65,0.0,-999.0,72,-99.99,,,0.00,weatherlink.com 1.10,2013-07-25 21:43:00,
2013-07-25 17:58:00,80.1,68.0,29.83,NNE,23,0.0,-999.0,66,-99.99,,,0.00,weatherlink.com 1.10,2013-07-25 21:58:00,
2013-07-25 18:13:00,81.1,69.0,29.83,NNE,27,0.0,-999.0,67,-99.99,,,0.00,weatherlink.com 1.10,2013-07-25 22:13:00,
2013-07-25 18:28:00,80.1,68.0,29.83,North,357,0.0,-999.0,66,-99.99,,,0.00,weatherlink.com 1.10,2013-07-25 22:28:00,
2013-07-25 18:43:00,80.1,68.0,29.83,North,357,0.0,-999.0,66,-99.99,,,0.00,weatherlink.com 1.10,2013-07-25 22:43:00,
2013-07-25 18:58:00,80.3,67.0,29.84,NNE,28,0.0,-999.0,65,-99.99,,,0.00,weatherlink.com 1.10,2013-07-25 22:58:00,
2013-07-25 19:13:00,79.9,67.0,29.84,NNE,28,0.0,-999.0,65,-99.99,,,0.00,weatherlink.com 1.10,2013-07-25 23:13:00,
2013-07-25 19:28:00,79.0,68.0,29.85,NNE,28,0.0,-999.0,69,-99.99,,,0.00,weatherlink.com 1.10,2013-07-25 23:28:00,
2013-07-25 19:43:00,77.6,68.0,29.85,NNE,30,0.0,-999.0,71,-99.99,,,0.00,weatherlink.com 1.10,2013-07-25 23:43:00,
2013-07-25 19:58:00,77.4,68.0,29.86,NNE,30,0.0,-999.0,72,-99.99,,,0.00,weatherlink.com 1.10,2013-07-25 23:58:00,
2013-07-25 20:13:00,77.4,69.0,29.86,NNE,28,0.0,-999.0,74,-99.99,,,0.00,weatherlink.com 1.10,2013-07-26 00:13:00,
2013-07-25 20:28:00,75.8,67.0,29.86,NNE,28,0.0,-999.0,74,-99.99,,,0.00,weatherlink.com 1.10,2013-07-26 00:28:00,
2013-07-25 20:43:00,74.2,68.0,29.87,NNE,28,0.0,-999.0,81,-99.99,,,0.00,weatherlink.com 1.10,2013-07-26 00:43:00,
2013-07-25 20:58:00,73.2,68.0,29.87,NNE,28,0.0,-999.0,83,-99.99,,,0.00,weatherlink.com 1.10,2013-07-26 00:58:00,
2013-07-25 21:13:00,72.5,68.0,29.87,NNE,28,0.0,-999.0,85,-99.99,,,0.00,weatherlink.com 1.10,2013-07-26 01:13:00,
2013-07-25 21:28:00,71.8,68.0,29.88,NNE,28,0.0,-999.0,87,-99.99,,,0.00,weatherlink.com 1.10,2013-07-26 01:28:00,
2013-07-25 21:43:00,71.5,68.0,29.89,NNE,28,0.0,-999.0,87,-99.99,,,0.00,weatherlink.com 1.10,2013-07-26 01:43:00,
2013-07-25 21:58:00,71.3,67.0,29.89,NNE,28,0.0,-999.0,87,-99.99,,,0.00,weatherlink.com 1.10,2013-07-26 01:58:00,
2013-07-25 22:13:00,71.3,68.0,29.90,NNE,28,0.0,-999.0,88,-99.99,,,0.00,weatherlink.com 1.10,2013-07-26 02:13:00,
2013-07-25 22:28:00,71.3,68.0,29.90,NNE,28,0.0,-999.0,88,-99.99,,,0.00,weatherlink.com 1.10,2013-07-26 02:28:00,
2013-07-25 22:43:00,69.6,66.0,29.91,NNE,28,0.0,-999.0,88,-99.99,,,0.00,weatherlink.com 1.10,2013-07-26 02:43:00,
2013-07-25 22:58:00,69.6,66.0,29.91,NNE,28,0.0,-999.0,88,-99.99,,,0.00,weatherlink.com 1.10,2013-07-26 02:58:00,
2013-07-25 23:13:00,68.8,66.0,29.91,NNE,30,0.0,-999.0,91,-99.99,,,0.00,weatherlink.com 1.10,2013-07-26 03:13:00,
2013-07-25 23:28:00,68.4,66.0,29.91,NNE,30,0.0,-999.0,92,-99.99,,,0.00,weatherlink.com 1.10,2013-07-26 03:28:00,
2013-07-25 23:44:00,68.3,66.0,29.92,NNE,30,0.0,-999.0,92,-99.99,,,0.00,weatherlink.com 1.10,2013-07-26 03:44:00,
2013-07-25 23:58:00,67.9,66.0,29.92,NNE,30,0.0,-999.0,92,-99.99,,,0.00,weatherlink.com 1.10,2013-07-26 03:58:00,